sensor_id;sensor_type;location;lat;lon;timestamp;P1;durP1;ratioP1;P2;durP2;ratioP2
48578;SDS011;34357;51.948;6.132;2023-03-01T00:01:22;10.37;;;8.10;;
48578;SDS011;34357;51.948;6.132;2023-03-01T00:03:50;14.43;;;8.43;;
48578;SDS011;34357;51.948;6.132;2023-03-01T00:06:16;11.23;;;8.03;;
48578;SDS011;34357;51.948;6.132;2023-03-01T00:08:42;12.20;;;8.10;;
48578;SDS011;34357;51.948;6.132;2023-03-01T00:13:36;11.53;;;8.30;;
48578;SDS011;34357;51.948;6.132;2023-03-01T00:16:03;10.90;;;8.47;;
48578;SDS011;34357;51.948;6.132;2023-03-01T00:18:33;11.60;;;8.48;;
48578;SDS011;34357;51.948;6.132;2023-03-01T00:21:00;15.33;;;9.17;;
48578;SDS011;34357;51.948;6.132;2023-03-01T00:23:26;11.63;;;8.23;;
48578;SDS011;34357;51.948;6.132;2023-03-01T00:25:52;10.57;;;8.60;;
48578;SDS011;34357;51.948;6.132;2023-03-01T00:28:18;12.03;;;8.83;;
48578;SDS011;34357;51.948;6.132;2023-03-01T00:30:45;13.33;;;8.90;;
48578;SDS011;34357;51.948;6.132;2023-03-01T00:33:11;10.50;;;7.90;;
48578;SDS011;34357;51.948;6.132;2023-03-01T00:35:37;11.77;;;8.30;;
48578;SDS011;34357;51.948;6.132;2023-03-01T00:38:03;13.43;;;8.40;;
48578;SDS011;34357;51.948;6.132;2023-03-01T00:40:30;12.13;;;8.47;;
48578;SDS011;34357;51.948;6.132;2023-03-01T00:42:58;12.43;;;8.67;;
48578;SDS011;34357;51.948;6.132;2023-03-01T00:45:24;11.97;;;8.20;;
48578;SDS011;34357;51.948;6.132;2023-03-01T00:47:50;11.73;;;8.27;;
48578;SDS011;34357;51.948;6.132;2023-03-01T00:50:16;13.33;;;9.00;;
48578;SDS011;34357;51.948;6.132;2023-03-01T00:52:43;20.07;;;8.93;;
48578;SDS011;34357;51.948;6.132;2023-03-01T00:55:09;16.83;;;11.37;;
48578;SDS011;34357;51.948;6.132;2023-03-01T00:57:36;12.37;;;9.07;;
48578;SDS011;34357;51.948;6.132;2023-03-01T01:00:02;13.77;;;8.70;;
48578;SDS011;34357;51.948;6.132;2023-03-01T01:02:29;14.03;;;9.90;;
48578;SDS011;34357;51.948;6.132;2023-03-01T01:04:57;14.50;;;10.03;;
48578;SDS011;34357;51.948;6.132;2023-03-01T01:07:23;14.27;;;9.53;;
48578;SDS011;34357;51.948;6.132;2023-03-01T01:09:49;14.57;;;9.57;;
48578;SDS011;34357;51.948;6.132;2023-03-01T01:12:15;11.77;;;9.70;;
48578;SDS011;34357;51.948;6.132;2023-03-01T01:14:41;15.13;;;10.30;;
48578;SDS011;34357;51.948;6.132;2023-03-01T01:17:08;13.10;;;9.63;;
48578;SDS011;34357;51.948;6.132;2023-03-01T01:19:34;14.80;;;9.87;;
48578;SDS011;34357;51.948;6.132;2023-03-01T01:22:00;12.60;;;9.60;;
48578;SDS011;34357;51.948;6.132;2023-03-01T01:24:26;15.43;;;9.93;;
48578;SDS011;34357;51.948;6.132;2023-03-01T01:26:52;13.13;;;9.37;;
48578;SDS011;34357;51.948;6.132;2023-03-01T01:29:17;16.30;;;10.30;;
48578;SDS011;34357;51.948;6.132;2023-03-01T01:31:43;13.40;;;10.07;;
48578;SDS011;34357;51.948;6.132;2023-03-01T01:34:13;14.77;;;10.07;;
48578;SDS011;34357;51.948;6.132;2023-03-01T01:36:42;13.77;;;9.67;;
48578;SDS011;34357;51.948;6.132;2023-03-01T01:39:08;12.90;;;9.87;;
48578;SDS011;34357;51.948;6.132;2023-03-01T01:41:38;14.73;;;10.03;;
48578;SDS011;34357;51.948;6.132;2023-03-01T01:44:23;16.27;;;10.03;;
48578;SDS011;34357;51.948;6.132;2023-03-01T01:54:36;15.80;;;10.70;;
48578;SDS011;34357;51.948;6.132;2023-03-01T01:57:07;17.30;;;11.27;;
48578;SDS011;34357;51.948;6.132;2023-03-01T01:59:37;16.40;;;11.27;;
48578;SDS011;34357;51.948;6.132;2023-03-01T02:02:04;16.23;;;11.70;;
48578;SDS011;34357;51.948;6.132;2023-03-01T02:04:31;16.57;;;11.27;;
48578;SDS011;34357;51.948;6.132;2023-03-01T02:07:01;18.70;;;11.27;;
48578;SDS011;34357;51.948;6.132;2023-03-01T02:09:32;17.83;;;11.17;;
48578;SDS011;34357;51.948;6.132;2023-03-01T02:12:00;20.07;;;12.07;;
48578;SDS011;34357;51.948;6.132;2023-03-01T02:14:27;14.40;;;10.13;;
48578;SDS011;34357;51.948;6.132;2023-03-01T02:16:53;18.07;;;11.67;;
48578;SDS011;34357;51.948;6.132;2023-03-01T02:19:22;16.77;;;11.47;;
48578;SDS011;34357;51.948;6.132;2023-03-01T02:27:18;19.07;;;12.00;;
48578;SDS011;34357;51.948;6.132;2023-03-01T02:29:49;15.95;;;11.35;;
48578;SDS011;34357;51.948;6.132;2023-03-01T02:32:15;17.63;;;11.80;;
48578;SDS011;34357;51.948;6.132;2023-03-01T02:34:54;18.33;;;11.90;;
48578;SDS011;34357;51.948;6.132;2023-03-01T02:37:21;18.42;;;11.80;;
48578;SDS011;34357;51.948;6.132;2023-03-01T02:39:54;19.87;;;11.83;;
48578;SDS011;34357;51.948;6.132;2023-03-01T02:42:25;20.63;;;11.87;;
48578;SDS011;34357;51.948;6.132;2023-03-01T02:44:55;15.27;;;11.13;;
48578;SDS011;34357;51.948;6.132;2023-03-01T02:47:21;19.67;;;12.87;;
48578;SDS011;34357;51.948;6.132;2023-03-01T02:49:47;15.77;;;11.90;;
48578;SDS011;34357;51.948;6.132;2023-03-01T02:57:42;18.57;;;12.10;;
48578;SDS011;34357;51.948;6.132;2023-03-01T03:00:11;19.17;;;12.10;;
48578;SDS011;34357;51.948;6.132;2023-03-01T03:02:44;17.37;;;11.87;;
48578;SDS011;34357;51.948;6.132;2023-03-01T03:05:21;15.87;;;10.93;;
48578;SDS011;34357;51.948;6.132;2023-03-01T03:07:52;14.37;;;11.70;;
48578;SDS011;34357;51.948;6.132;2023-03-01T03:10:21;17.43;;;10.73;;
48578;SDS011;34357;51.948;6.132;2023-03-01T03:12:53;18.57;;;11.17;;
48578;SDS011;34357;51.948;6.132;2023-03-01T03:15:22;17.40;;;11.93;;
48578;SDS011;34357;51.948;6.132;2023-03-01T03:17:49;17.93;;;11.33;;
48578;SDS011;34357;51.948;6.132;2023-03-01T03:20:16;16.07;;;11.20;;
48578;SDS011;34357;51.948;6.132;2023-03-01T03:22:44;15.80;;;10.63;;
48578;SDS011;34357;51.948;6.132;2023-03-01T03:25:12;15.47;;;11.90;;
48578;SDS011;34357;51.948;6.132;2023-03-01T03:27:38;19.33;;;11.43;;
48578;SDS011;34357;51.948;6.132;2023-03-01T03:30:05;14.77;;;11.20;;
48578;SDS011;34357;51.948;6.132;2023-03-01T03:32:36;21.17;;;12.97;;
48578;SDS011;34357;51.948;6.132;2023-03-01T03:35:06;20.50;;;12.07;;
48578;SDS011;34357;51.948;6.132;2023-03-01T03:37:37;17.73;;;12.00;;
48578;SDS011;34357;51.948;6.132;2023-03-01T03:40:22;15.83;;;11.43;;
48578;SDS011;34357;51.948;6.132;2023-03-01T03:42:48;16.77;;;11.83;;
48578;SDS011;34357;51.948;6.132;2023-03-01T03:45:15;15.73;;;11.40;;
48578;SDS011;34357;51.948;6.132;2023-03-01T03:47:41;14.03;;;11.07;;
48578;SDS011;34357;51.948;6.132;2023-03-01T03:50:07;15.87;;;11.73;;
48578;SDS011;34357;51.948;6.132;2023-03-01T03:52:34;18.93;;;12.10;;
48578;SDS011;34357;51.948;6.132;2023-03-01T03:55:00;16.87;;;12.23;;
48578;SDS011;34357;51.948;6.132;2023-03-01T03:57:26;14.00;;;10.97;;
48578;SDS011;34357;51.948;6.132;2023-03-01T03:59:51;21.67;;;11.90;;
48578;SDS011;34357;51.948;6.132;2023-03-01T04:02:17;13.90;;;10.37;;
48578;SDS011;34357;51.948;6.132;2023-03-01T04:04:49;19.00;;;12.03;;
48578;SDS011;34357;51.948;6.132;2023-03-01T04:07:16;17.63;;;11.17;;
48578;SDS011;34357;51.948;6.132;2023-03-01T04:09:42;16.53;;;11.47;;
48578;SDS011;34357;51.948;6.132;2023-03-01T04:12:09;16.60;;;11.40;;
48578;SDS011;34357;51.948;6.132;2023-03-01T04:14:35;17.27;;;12.00;;
48578;SDS011;34357;51.948;6.132;2023-03-01T04:17:01;14.93;;;11.43;;
48578;SDS011;34357;51.948;6.132;2023-03-01T04:19:33;15.53;;;10.87;;
48578;SDS011;34357;51.948;6.132;2023-03-01T04:22:04;15.45;;;11.65;;
48578;SDS011;34357;51.948;6.132;2023-03-01T04:24:37;16.47;;;11.57;;
48578;SDS011;34357;51.948;6.132;2023-03-01T04:27:02;16.30;;;11.80;;
48578;SDS011;34357;51.948;6.132;2023-03-01T04:29:28;16.80;;;11.67;;
48578;SDS011;34357;51.948;6.132;2023-03-01T04:31:54;17.60;;;11.80;;
48578;SDS011;34357;51.948;6.132;2023-03-01T04:34:20;18.70;;;11.73;;
48578;SDS011;34357;51.948;6.132;2023-03-01T04:36:46;17.57;;;12.17;;
48578;SDS011;34357;51.948;6.132;2023-03-01T04:39:11;16.73;;;11.47;;
48578;SDS011;34357;51.948;6.132;2023-03-01T04:41:38;14.37;;;12.03;;
48578;SDS011;34357;51.948;6.132;2023-03-01T04:44:04;16.33;;;12.03;;
48578;SDS011;34357;51.948;6.132;2023-03-01T04:46:30;15.27;;;11.30;;
48578;SDS011;34357;51.948;6.132;2023-03-01T04:48:56;15.83;;;11.27;;
48578;SDS011;34357;51.948;6.132;2023-03-01T04:51:22;16.17;;;11.00;;
48578;SDS011;34357;51.948;6.132;2023-03-01T04:53:48;16.07;;;12.10;;
48578;SDS011;34357;51.948;6.132;2023-03-01T04:56:14;14.33;;;10.53;;
48578;SDS011;34357;51.948;6.132;2023-03-01T04:58:41;17.60;;;11.57;;
48578;SDS011;34357;51.948;6.132;2023-03-01T05:01:13;21.13;;;11.60;;
48578;SDS011;34357;51.948;6.132;2023-03-01T05:03:45;18.77;;;12.70;;
48578;SDS011;34357;51.948;6.132;2023-03-01T05:06:13;17.47;;;10.90;;
48578;SDS011;34357;51.948;6.132;2023-03-01T05:08:39;16.50;;;11.47;;
48578;SDS011;34357;51.948;6.132;2023-03-01T05:11:06;15.77;;;10.87;;
48578;SDS011;34357;51.948;6.132;2023-03-01T05:13:34;15.07;;;11.17;;
48578;SDS011;34357;51.948;6.132;2023-03-01T05:16:04;16.03;;;11.30;;
48578;SDS011;34357;51.948;6.132;2023-03-01T05:18:31;15.33;;;12.00;;
48578;SDS011;34357;51.948;6.132;2023-03-01T05:21:06;15.80;;;11.77;;
48578;SDS011;34357;51.948;6.132;2023-03-01T05:23:34;20.07;;;12.50;;
48578;SDS011;34357;51.948;6.132;2023-03-01T05:26:00;17.50;;;11.80;;
48578;SDS011;34357;51.948;6.132;2023-03-01T05:28:29;18.60;;;12.47;;
48578;SDS011;34357;51.948;6.132;2023-03-01T05:30:56;17.63;;;12.73;;
48578;SDS011;34357;51.948;6.132;2023-03-01T05:33:22;21.00;;;12.27;;
48578;SDS011;34357;51.948;6.132;2023-03-01T05:35:49;17.50;;;12.40;;
48578;SDS011;34357;51.948;6.132;2023-03-01T05:38:16;17.97;;;11.70;;
48578;SDS011;34357;51.948;6.132;2023-03-01T05:40:43;16.87;;;11.30;;
48578;SDS011;34357;51.948;6.132;2023-03-01T05:43:11;15.30;;;11.37;;
48578;SDS011;34357;51.948;6.132;2023-03-01T05:45:38;17.80;;;11.73;;
48578;SDS011;34357;51.948;6.132;2023-03-01T05:48:05;19.40;;;12.27;;
48578;SDS011;34357;51.948;6.132;2023-03-01T05:50:33;22.97;;;14.70;;
48578;SDS011;34357;51.948;6.132;2023-03-01T05:53:17;22.83;;;14.97;;
48578;SDS011;34357;51.948;6.132;2023-03-01T05:55:46;26.30;;;15.57;;
48578;SDS011;34357;51.948;6.132;2023-03-01T05:58:15;21.90;;;13.10;;
48578;SDS011;34357;51.948;6.132;2023-03-01T06:00:42;19.70;;;11.73;;
48578;SDS011;34357;51.948;6.132;2023-03-01T06:03:10;15.63;;;11.30;;
48578;SDS011;34357;51.948;6.132;2023-03-01T06:05:37;17.40;;;11.90;;
48578;SDS011;34357;51.948;6.132;2023-03-01T06:08:04;19.03;;;12.37;;
48578;SDS011;34357;51.948;6.132;2023-03-01T06:10:30;17.97;;;13.17;;
48578;SDS011;34357;51.948;6.132;2023-03-01T06:12:56;22.53;;;12.80;;
48578;SDS011;34357;51.948;6.132;2023-03-01T06:15:23;20.30;;;13.83;;
48578;SDS011;34357;51.948;6.132;2023-03-01T06:17:50;21.33;;;12.37;;
48578;SDS011;34357;51.948;6.132;2023-03-01T06:20:17;19.60;;;12.83;;
48578;SDS011;34357;51.948;6.132;2023-03-01T06:22:47;17.53;;;12.63;;
48578;SDS011;34357;51.948;6.132;2023-03-01T06:25:15;19.37;;;12.97;;
48578;SDS011;34357;51.948;6.132;2023-03-01T06:27:42;18.37;;;12.33;;
48578;SDS011;34357;51.948;6.132;2023-03-01T06:30:09;24.37;;;13.33;;
48578;SDS011;34357;51.948;6.132;2023-03-01T06:32:36;22.50;;;13.83;;
48578;SDS011;34357;51.948;6.132;2023-03-01T06:35:03;17.83;;;13.03;;
48578;SDS011;34357;51.948;6.132;2023-03-01T06:37:30;21.33;;;12.93;;
48578;SDS011;34357;51.948;6.132;2023-03-01T06:39:56;19.90;;;12.47;;
48578;SDS011;34357;51.948;6.132;2023-03-01T06:42:22;19.07;;;12.27;;
48578;SDS011;34357;51.948;6.132;2023-03-01T06:44:47;17.67;;;12.00;;
48578;SDS011;34357;51.948;6.132;2023-03-01T06:47:13;18.30;;;12.20;;
48578;SDS011;34357;51.948;6.132;2023-03-01T06:49:39;24.00;;;12.10;;
48578;SDS011;34357;51.948;6.132;2023-03-01T06:52:05;18.40;;;12.17;;
48578;SDS011;34357;51.948;6.132;2023-03-01T06:54:31;22.70;;;13.83;;
48578;SDS011;34357;51.948;6.132;2023-03-01T06:56:57;24.43;;;13.63;;
48578;SDS011;34357;51.948;6.132;2023-03-01T06:59:22;21.47;;;13.30;;
48578;SDS011;34357;51.948;6.132;2023-03-01T07:01:48;24.17;;;12.33;;
48578;SDS011;34357;51.948;6.132;2023-03-01T07:04:14;18.00;;;12.10;;
48578;SDS011;34357;51.948;6.132;2023-03-01T07:06:40;19.50;;;13.00;;
48578;SDS011;34357;51.948;6.132;2023-03-01T07:09:06;17.77;;;12.47;;
48578;SDS011;34357;51.948;6.132;2023-03-01T07:11:32;21.20;;;12.07;;
48578;SDS011;34357;51.948;6.132;2023-03-01T07:13:58;17.70;;;12.03;;
48578;SDS011;34357;51.948;6.132;2023-03-01T07:16:25;19.50;;;12.23;;
48578;SDS011;34357;51.948;6.132;2023-03-01T07:18:50;16.63;;;10.60;;
48578;SDS011;34357;51.948;6.132;2023-03-01T07:21:16;16.13;;;10.73;;
48578;SDS011;34357;51.948;6.132;2023-03-01T07:23:42;17.30;;;11.43;;
48578;SDS011;34357;51.948;6.132;2023-03-01T07:26:08;13.93;;;10.37;;
48578;SDS011;34357;51.948;6.132;2023-03-01T07:28:34;13.83;;;10.10;;
48578;SDS011;34357;51.948;6.132;2023-03-01T07:31:04;14.03;;;10.67;;
48578;SDS011;34357;51.948;6.132;2023-03-01T07:33:31;15.33;;;9.73;;
48578;SDS011;34357;51.948;6.132;2023-03-01T07:35:58;14.23;;;9.90;;
48578;SDS011;34357;51.948;6.132;2023-03-01T07:38:25;18.03;;;9.90;;
48578;SDS011;34357;51.948;6.132;2023-03-01T07:40:51;12.30;;;9.03;;
48578;SDS011;34357;51.948;6.132;2023-03-01T07:43:17;13.23;;;8.70;;
48578;SDS011;34357;51.948;6.132;2023-03-01T07:45:43;14.77;;;8.77;;
48578;SDS011;34357;51.948;6.132;2023-03-01T07:48:09;15.43;;;8.80;;
48578;SDS011;34357;51.948;6.132;2023-03-01T07:50:35;14.83;;;8.87;;
48578;SDS011;34357;51.948;6.132;2023-03-01T07:53:00;15.93;;;8.97;;
48578;SDS011;34357;51.948;6.132;2023-03-01T07:55:27;12.30;;;8.30;;
48578;SDS011;34357;51.948;6.132;2023-03-01T07:57:53;11.80;;;8.50;;
48578;SDS011;34357;51.948;6.132;2023-03-01T08:00:19;12.97;;;8.27;;
48578;SDS011;34357;51.948;6.132;2023-03-01T08:02:44;14.77;;;9.17;;
48578;SDS011;34357;51.948;6.132;2023-03-01T08:05:10;15.13;;;9.60;;
48578;SDS011;34357;51.948;6.132;2023-03-01T08:07:36;11.63;;;8.25;;
48578;SDS011;34357;51.948;6.132;2023-03-01T08:10:02;11.50;;;7.77;;
48578;SDS011;34357;51.948;6.132;2023-03-01T08:12:28;15.57;;;8.33;;
48578;SDS011;34357;51.948;6.132;2023-03-01T08:14:54;12.80;;;7.85;;
48578;SDS011;34357;51.948;6.132;2023-03-01T08:17:22;12.40;;;8.07;;
48578;SDS011;34357;51.948;6.132;2023-03-01T08:19:53;12.88;;;7.47;;
48578;SDS011;34357;51.948;6.132;2023-03-01T08:22:20;13.70;;;6.63;;
48578;SDS011;34357;51.948;6.132;2023-03-01T08:24:46;14.15;;;6.78;;
48578;SDS011;34357;51.948;6.132;2023-03-01T08:27:14;11.55;;;7.72;;
48578;SDS011;34357;51.948;6.132;2023-03-01T08:29:41;12.55;;;8.02;;
48578;SDS011;34357;51.948;6.132;2023-03-01T08:32:06;11.73;;;7.68;;
48578;SDS011;34357;51.948;6.132;2023-03-01T08:34:33;11.32;;;7.88;;
48578;SDS011;34357;51.948;6.132;2023-03-01T08:37:01;11.98;;;7.95;;
48578;SDS011;34357;51.948;6.132;2023-03-01T08:39:30;11.40;;;7.30;;
48578;SDS011;34357;51.948;6.132;2023-03-01T08:41:56;10.20;;;6.90;;
48578;SDS011;34357;51.948;6.132;2023-03-01T08:44:22;11.85;;;7.00;;
48578;SDS011;34357;51.948;6.132;2023-03-01T08:46:49;12.50;;;7.03;;
48578;SDS011;34357;51.948;6.132;2023-03-01T08:49:17;10.05;;;6.93;;
48578;SDS011;34357;51.948;6.132;2023-03-01T08:51:45;14.05;;;6.88;;
48578;SDS011;34357;51.948;6.132;2023-03-01T08:54:12;12.10;;;6.72;;
48578;SDS011;34357;51.948;6.132;2023-03-01T08:56:40;11.35;;;6.75;;
48578;SDS011;34357;51.948;6.132;2023-03-01T08:59:06;14.73;;;6.93;;
48578;SDS011;34357;51.948;6.132;2023-03-01T09:01:32;10.95;;;6.50;;
48578;SDS011;34357;51.948;6.132;2023-03-01T09:03:59;11.23;;;6.78;;
48578;SDS011;34357;51.948;6.132;2023-03-01T09:06:30;11.60;;;6.75;;
48578;SDS011;34357;51.948;6.132;2023-03-01T09:08:58;10.90;;;6.38;;
48578;SDS011;34357;51.948;6.132;2023-03-01T09:11:24;10.43;;;6.38;;
48578;SDS011;34357;51.948;6.132;2023-03-01T09:13:51;7.50;;;5.78;;
48578;SDS011;34357;51.948;6.132;2023-03-01T09:16:18;10.93;;;6.45;;
48578;SDS011;34357;51.948;6.132;2023-03-01T09:18:48;11.45;;;6.28;;
48578;SDS011;34357;51.948;6.132;2023-03-01T09:21:16;10.00;;;5.82;;
48578;SDS011;34357;51.948;6.132;2023-03-01T09:23:44;10.80;;;6.38;;
48578;SDS011;34357;51.948;6.132;2023-03-01T09:26:12;10.00;;;6.05;;
48578;SDS011;34357;51.948;6.132;2023-03-01T09:28:42;10.77;;;6.37;;
48578;SDS011;34357;51.948;6.132;2023-03-01T09:31:16;9.60;;;5.60;;
48578;SDS011;34357;51.948;6.132;2023-03-01T09:33:45;8.13;;;5.93;;
48578;SDS011;34357;51.948;6.132;2023-03-01T09:36:16;10.32;;;6.25;;
48578;SDS011;34357;51.948;6.132;2023-03-01T09:38:44;12.15;;;6.90;;
48578;SDS011;34357;51.948;6.132;2023-03-01T09:41:26;11.20;;;7.20;;
48578;SDS011;34357;51.948;6.132;2023-03-01T09:45:33;13.85;;;8.02;;
48578;SDS011;34357;51.948;6.132;2023-03-01T09:47:45;15.02;;;8.50;;
48578;SDS011;34357;51.948;6.132;2023-03-01T09:50:12;19.88;;;9.93;;
48578;SDS011;34357;51.948;6.132;2023-03-01T09:52:52;18.15;;;9.10;;
48578;SDS011;34357;51.948;6.132;2023-03-01T09:55:46;16.15;;;8.45;;
48578;SDS011;34357;51.948;6.132;2023-03-01T10:07:11;10.75;;;5.55;;
48578;SDS011;34357;51.948;6.132;2023-03-01T10:09:46;10.10;;;5.72;;
48578;SDS011;34357;51.948;6.132;2023-03-01T10:12:33;7.82;;;4.90;;
48578;SDS011;34357;51.948;6.132;2023-03-01T10:17:36;8.73;;;5.05;;
48578;SDS011;34357;51.948;6.132;2023-03-01T10:20:23;9.02;;;5.15;;
48578;SDS011;34357;51.948;6.132;2023-03-01T10:22:53;8.30;;;4.93;;
48578;SDS011;34357;51.948;6.132;2023-03-01T10:25:23;9.35;;;5.15;;
48578;SDS011;34357;51.948;6.132;2023-03-01T10:28:02;8.15;;;5.50;;
48578;SDS011;34357;51.948;6.132;2023-03-01T10:30:36;9.13;;;5.07;;
48578;SDS011;34357;51.948;6.132;2023-03-01T10:33:39;7.90;;;4.88;;
48578;SDS011;34357;51.948;6.132;2023-03-01T10:36:01;6.78;;;4.22;;
48578;SDS011;34357;51.948;6.132;2023-03-01T10:38:28;6.30;;;4.07;;
48578;SDS011;34357;51.948;6.132;2023-03-01T10:41:00;7.78;;;4.93;;
48578;SDS011;34357;51.948;6.132;2023-03-01T10:43:39;7.05;;;4.65;;
48578;SDS011;34357;51.948;6.132;2023-03-01T10:51:43;7.10;;;5.10;;
48578;SDS011;34357;51.948;6.132;2023-03-01T10:57:10;7.75;;;4.88;;
48578;SDS011;34357;51.948;6.132;2023-03-01T10:59:51;11.63;;;5.38;;
48578;SDS011;34357;51.948;6.132;2023-03-01T11:02:39;11.50;;;4.72;;
48578;SDS011;34357;51.948;6.132;2023-03-01T11:07:53;9.48;;;5.45;;
48578;SDS011;34357;51.948;6.132;2023-03-01T11:10:29;9.27;;;5.90;;
48578;SDS011;34357;51.948;6.132;2023-03-01T11:13:07;10.30;;;5.30;;
48578;SDS011;34357;51.948;6.132;2023-03-01T11:15:39;8.93;;;4.93;;
48578;SDS011;34357;51.948;6.132;2023-03-01T11:18:21;8.93;;;5.20;;
48578;SDS011;34357;51.948;6.132;2023-03-01T11:20:48;8.70;;;5.65;;
48578;SDS011;34357;51.948;6.132;2023-03-01T11:23:16;7.63;;;5.13;;
48578;SDS011;34357;51.948;6.132;2023-03-01T11:25:46;7.90;;;4.80;;
48578;SDS011;34357;51.948;6.132;2023-03-01T11:28:28;8.35;;;4.95;;
48578;SDS011;34357;51.948;6.132;2023-03-01T11:39:31;8.52;;;4.97;;
48578;SDS011;34357;51.948;6.132;2023-03-01T11:42:48;7.43;;;4.82;;
48578;SDS011;34357;51.948;6.132;2023-03-01T11:48:57;8.43;;;5.80;;
48578;SDS011;34357;51.948;6.132;2023-03-01T11:54:18;10.05;;;5.53;;
48578;SDS011;34357;51.948;6.132;2023-03-01T11:56:57;7.43;;;5.30;;
48578;SDS011;34357;51.948;6.132;2023-03-01T12:10:19;6.78;;;5.40;;
48578;SDS011;34357;51.948;6.132;2023-03-01T12:21:01;8.45;;;5.05;;
48578;SDS011;34357;51.948;6.132;2023-03-01T12:27:43;7.70;;;4.75;;
48578;SDS011;34357;51.948;6.132;2023-03-01T12:35:38;8.55;;;5.13;;
48578;SDS011;34357;51.948;6.132;2023-03-01T12:44:12;14.82;;;5.15;;
48578;SDS011;34357;51.948;6.132;2023-03-01T12:46:52;16.05;;;9.50;;
48578;SDS011;34357;51.948;6.132;2023-03-01T12:49:26;10.38;;;6.00;;
48578;SDS011;34357;51.948;6.132;2023-03-01T12:52:01;8.98;;;5.07;;
48578;SDS011;34357;51.948;6.132;2023-03-01T12:54:30;7.50;;;4.88;;
48578;SDS011;34357;51.948;6.132;2023-03-01T12:57:01;6.72;;;4.70;;
48578;SDS011;34357;51.948;6.132;2023-03-01T13:04:39;9.88;;;5.38;;
48578;SDS011;34357;51.948;6.132;2023-03-01T13:17:49;16.73;;;5.50;;
48578;SDS011;34357;51.948;6.132;2023-03-01T13:23:09;11.27;;;6.38;;
48578;SDS011;34357;51.948;6.132;2023-03-01T13:31:11;9.02;;;6.05;;
48578;SDS011;34357;51.948;6.132;2023-03-01T13:33:56;7.03;;;4.88;;
48578;SDS011;34357;51.948;6.132;2023-03-01T13:47:37;8.05;;;5.07;;
48578;SDS011;34357;51.948;6.132;2023-03-01T13:57:42;10.45;;;5.25;;
48578;SDS011;34357;51.948;6.132;2023-03-01T14:03:04;8.15;;;5.38;;
48578;SDS011;34357;51.948;6.132;2023-03-01T14:08:27;7.03;;;5.13;;
48578;SDS011;34357;51.948;6.132;2023-03-01T14:10:58;7.22;;;4.57;;
48578;SDS011;34357;51.948;6.132;2023-03-01T14:19:14;8.00;;;5.13;;
48578;SDS011;34357;51.948;6.132;2023-03-01T14:21:42;8.43;;;5.20;;
48578;SDS011;34357;51.948;6.132;2023-03-01T14:24:17;7.00;;;4.97;;
48578;SDS011;34357;51.948;6.132;2023-03-01T14:26:45;8.68;;;4.78;;
48578;SDS011;34357;51.948;6.132;2023-03-01T14:29:27;9.93;;;5.47;;
48578;SDS011;34357;51.948;6.132;2023-03-01T14:32:08;7.72;;;5.20;;
48578;SDS011;34357;51.948;6.132;2023-03-01T14:34:42;8.68;;;5.15;;
48578;SDS011;34357;51.948;6.132;2023-03-01T14:39:50;9.73;;;5.47;;
48578;SDS011;34357;51.948;6.132;2023-03-01T14:42:17;16.63;;;5.70;;
48578;SDS011;34357;51.948;6.132;2023-03-01T14:44:48;9.18;;;5.25;;
48578;SDS011;34357;51.948;6.132;2023-03-01T14:47:23;6.65;;;5.18;;
48578;SDS011;34357;51.948;6.132;2023-03-01T14:49:55;7.28;;;5.38;;
48578;SDS011;34357;51.948;6.132;2023-03-01T14:52:45;6.97;;;5.57;;
48578;SDS011;34357;51.948;6.132;2023-03-01T14:55:15;9.25;;;5.28;;
48578;SDS011;34357;51.948;6.132;2023-03-01T14:57:45;6.60;;;4.90;;
48578;SDS011;34357;51.948;6.132;2023-03-01T15:00:34;8.38;;;5.50;;
48578;SDS011;34357;51.948;6.132;2023-03-01T15:03:06;7.13;;;5.10;;
48578;SDS011;34357;51.948;6.132;2023-03-01T15:05:38;8.55;;;5.75;;
48578;SDS011;34357;51.948;6.132;2023-03-01T15:08:06;7.28;;;4.97;;
48578;SDS011;34357;51.948;6.132;2023-03-01T15:10:38;6.65;;;4.55;;
48578;SDS011;34357;51.948;6.132;2023-03-01T15:13:11;6.68;;;5.05;;
48578;SDS011;34357;51.948;6.132;2023-03-01T15:15:47;8.43;;;5.63;;
48578;SDS011;34357;51.948;6.132;2023-03-01T15:18:20;9.02;;;5.28;;
48578;SDS011;34357;51.948;6.132;2023-03-01T15:20:50;7.65;;;4.68;;
48578;SDS011;34357;51.948;6.132;2023-03-01T15:23:21;8.68;;;5.22;;
48578;SDS011;34357;51.948;6.132;2023-03-01T15:25:48;9.30;;;4.50;;
48578;SDS011;34357;51.948;6.132;2023-03-01T15:28:22;11.55;;;5.22;;
48578;SDS011;34357;51.948;6.132;2023-03-01T15:30:53;7.22;;;4.72;;
48578;SDS011;34357;51.948;6.132;2023-03-01T15:33:40;9.32;;;5.28;;
48578;SDS011;34357;51.948;6.132;2023-03-01T15:36:31;7.32;;;5.15;;
48578;SDS011;34357;51.948;6.132;2023-03-01T15:39:22;6.40;;;4.35;;
48578;SDS011;34357;51.948;6.132;2023-03-01T15:47:55;6.78;;;4.15;;
48578;SDS011;34357;51.948;6.132;2023-03-01T15:52:58;6.70;;;4.22;;
48578;SDS011;34357;51.948;6.132;2023-03-01T15:55:29;5.72;;;3.50;;
48578;SDS011;34357;51.948;6.132;2023-03-01T15:58:02;5.97;;;4.20;;
48578;SDS011;34357;51.948;6.132;2023-03-01T16:00:31;7.68;;;4.80;;
48578;SDS011;34357;51.948;6.132;2023-03-01T16:02:58;7.43;;;4.55;;
48578;SDS011;34357;51.948;6.132;2023-03-01T16:05:27;7.05;;;4.07;;
48578;SDS011;34357;51.948;6.132;2023-03-01T16:10:21;6.93;;;4.53;;
48578;SDS011;34357;51.948;6.132;2023-03-01T16:12:49;7.53;;;4.78;;
48578;SDS011;34357;51.948;6.132;2023-03-01T16:15:24;8.45;;;4.60;;
48578;SDS011;34357;51.948;6.132;2023-03-01T16:17:56;10.13;;;5.45;;
48578;SDS011;34357;51.948;6.132;2023-03-01T16:20:25;7.70;;;4.60;;
48578;SDS011;34357;51.948;6.132;2023-03-01T16:22:52;8.45;;;4.65;;
48578;SDS011;34357;51.948;6.132;2023-03-01T16:25:18;7.93;;;4.45;;
48578;SDS011;34357;51.948;6.132;2023-03-01T16:27:45;7.63;;;4.63;;
48578;SDS011;34357;51.948;6.132;2023-03-01T16:30:14;7.15;;;3.92;;
48578;SDS011;34357;51.948;6.132;2023-03-01T16:32:41;6.18;;;3.75;;
48578;SDS011;34357;51.948;6.132;2023-03-01T16:35:09;8.02;;;4.45;;
48578;SDS011;34357;51.948;6.132;2023-03-01T16:37:36;7.15;;;4.32;;
48578;SDS011;34357;51.948;6.132;2023-03-01T16:40:03;8.68;;;4.47;;
48578;SDS011;34357;51.948;6.132;2023-03-01T16:42:33;7.28;;;4.10;;
48578;SDS011;34357;51.948;6.132;2023-03-01T16:45:05;6.97;;;3.95;;
48578;SDS011;34357;51.948;6.132;2023-03-01T16:47:32;8.30;;;4.45;;
48578;SDS011;34357;51.948;6.132;2023-03-01T16:49:58;5.20;;;3.80;;
48578;SDS011;34357;51.948;6.132;2023-03-01T16:52:24;8.10;;;3.85;;
48578;SDS011;34357;51.948;6.132;2023-03-01T16:54:50;9.05;;;4.13;;
48578;SDS011;34357;51.948;6.132;2023-03-01T16:57:16;7.00;;;3.33;;
48578;SDS011;34357;51.948;6.132;2023-03-01T16:59:42;8.25;;;4.28;;
48578;SDS011;34357;51.948;6.132;2023-03-01T17:02:11;7.82;;;4.63;;
48578;SDS011;34357;51.948;6.132;2023-03-01T17:04:39;7.93;;;3.97;;
48578;SDS011;34357;51.948;6.132;2023-03-01T17:07:05;11.35;;;5.30;;
48578;SDS011;34357;51.948;6.132;2023-03-01T17:09:37;8.05;;;4.78;;
48578;SDS011;34357;51.948;6.132;2023-03-01T17:12:03;4.25;;;3.40;;
48578;SDS011;34357;51.948;6.132;2023-03-01T17:14:29;5.20;;;3.65;;
48578;SDS011;34357;51.948;6.132;2023-03-01T17:16:55;7.40;;;3.85;;
48578;SDS011;34357;51.948;6.132;2023-03-01T17:19:21;5.10;;;3.60;;
48578;SDS011;34357;51.948;6.132;2023-03-01T17:21:46;6.22;;;3.50;;
48578;SDS011;34357;51.948;6.132;2023-03-01T17:24:12;7.30;;;4.07;;
48578;SDS011;34357;51.948;6.132;2023-03-01T17:26:38;8.25;;;4.22;;
48578;SDS011;34357;51.948;6.132;2023-03-01T17:29:05;7.20;;;4.03;;